Wetterdaten: Montag, 20.09.2010
Datum Zeit Temp. A. Feuchte A. Luftdruck Regen Wind Richtung Richtung Sonnenschein UV Solar Windben
20.09.2010 00:00 13,1 C 77 % 1015,7 hPa 0,0 mm 1,6 km/h (1 Bft) SW 225 0 min 0 UV-I 0 W/m 8,0 km/h (2 Bft)
20.09.2010 00:10 13,1 C 77 % 1015,7 hPa 0,0 mm 1,6 km/h (1 Bft) SW 225 0 min 0 UV-I 0 W/m 8,0 km/h (2 Bft)
20.09.2010 00:20 13,0 C 77 % 1015,6 hPa 0,0 mm 1,6 km/h (1 Bft) S-SW 202 0 min 0 UV-I 0 W/m 8,0 km/h (2 Bft)
20.09.2010 00:30 12,9 C 77 % 1015,6 hPa 0,0 mm 1,6 km/h (1 Bft) SW 225 0 min 0 UV-I 0 W/m 8,0 km/h (2 Bft)
20.09.2010 00:40 12,9 C 77 % 1015,5 hPa 0,0 mm 1,6 km/h (1 Bft) S-SW 202 0 min 0 UV-I 0 W/m 11,3 km/h (2 Bft)
20.09.2010 00:50 12,9 C 78 % 1015,5 hPa 0,0 mm 1,6 km/h (1 Bft) SW 225 0 min 0 UV-I 0 W/m 6,4 km/h (2 Bft)
20.09.2010 01:00 12,8 C 78 % 1015,4 hPa 0,0 mm 0,0 km/h (0 Bft) S-SW 202 0 min 0 UV-I 0 W/m 4,8 km/h (1 Bft)
20.09.2010 01:10 12,8 C 78 % 1015,4 hPa 0,0 mm 0,0 km/h (0 Bft) S-SW 202 0 min 0 UV-I 0 W/m 3,2 km/h (1 Bft)
20.09.2010 01:20 12,7 C 78 % 1015,4 hPa 0,0 mm 0,0 km/h (0 Bft) S-SW 202 0 min 0 UV-I 0 W/m 3,2 km/h (1 Bft)
20.09.2010 01:30 12,7 C 78 % 1015,3 hPa 0,0 mm 0,0 km/h (0 Bft) S-SW 202 0 min 0 UV-I 0 W/m 3,2 km/h (1 Bft)
20.09.2010 01:40 12,7 C 79 % 1015,1 hPa 0,0 mm 0,0 km/h (0 Bft) S-SW 202 0 min 0 UV-I 0 W/m 3,2 km/h (1 Bft)
20.09.2010 01:50 12,7 C 79 % 1015,0 hPa 0,0 mm 0,0 km/h (0 Bft) S-SW 202 0 min 0 UV-I 0 W/m 0,0 km/h (0 Bft)
20.09.2010 02:00 12,7 C 79 % 1015,1 hPa 0,0 mm 0,0 km/h (0 Bft) S-SW 202 0 min 0 UV-I 0 W/m 0,0 km/h (0 Bft)
20.09.2010 02:10 12,7 C 79 % 1015,0 hPa 0,0 mm 0,0 km/h (0 Bft) S-SW 202 0 min 0 UV-I 0 W/m 0,0 km/h (0 Bft)
20.09.2010 02:20 12,7 C 79 % 1014,9 hPa 0,0 mm 0,0 km/h (0 Bft) S-SW 202 0 min 0 UV-I 0 W/m 0,0 km/h (0 Bft)
20.09.2010 02:30 12,7 C 79 % 1014,9 hPa 0,0 mm 0,0 km/h (0 Bft) S-SW 202 0 min 0 UV-I 0 W/m 0,0 km/h (0 Bft)
20.09.2010 02:40 12,7 C 79 % 1014,8 hPa 0,0 mm 1,6 km/h (1 Bft) S-SW 202 0 min 0 UV-I 0 W/m 1,6 km/h (1 Bft)
20.09.2010 02:50 12,7 C 79 % 1014,8 hPa 0,0 mm 1,6 km/h (1 Bft) S-SW 202 0 min 0 UV-I 0 W/m 1,6 km/h (1 Bft)
20.09.2010 03:00 12,7 C 79 % 1014,7 hPa 0,0 mm 1,6 km/h (1 Bft) S-SW 202 0 min 0 UV-I 0 W/m 1,6 km/h (1 Bft)
20.09.2010 03:10 12,7 C 79 % 1014,6 hPa 0,0 mm 0,0 km/h (0 Bft) S-SW 202 0 min 0 UV-I 0 W/m 0,0 km/h (0 Bft)
20.09.2010 03:20 12,7 C 79 % 1014,6 hPa 0,0 mm 0,0 km/h (0 Bft) S-SW 202 0 min 0 UV-I 0 W/m 0,0 km/h (0 Bft)
20.09.2010 03:30 12,7 C 79 % 1014,6 hPa 0,0 mm 0,0 km/h (0 Bft) S-SW 202 0 min 0 UV-I 0 W/m 0,0 km/h (0 Bft)
20.09.2010 03:40 12,7 C 79 % 1014,6 hPa 0,0 mm 0,0 km/h (0 Bft) S-SW 202 0 min 0 UV-I 0 W/m 0,0 km/h (0 Bft)
20.09.2010 03:50 12,7 C 79 % 1014,6 hPa 0,0 mm 1,6 km/h (1 Bft) S-SW 202 0 min 0 UV-I 0 W/m 1,6 km/h (1 Bft)
20.09.2010 04:00 12,6 C 80 % 1014,4 hPa 0,0 mm 1,6 km/h (1 Bft) SW 225 0 min 0 UV-I 0 W/m 1,6 km/h (1 Bft)
20.09.2010 04:10 12,6 C 80 % 1014,4 hPa 0,0 mm 1,6 km/h (1 Bft) SW 225 0 min 0 UV-I 0 W/m 1,6 km/h (1 Bft)
20.09.2010 04:20 12,5 C 81 % 1014,4 hPa 0,0 mm 0,0 km/h (0 Bft) SW 225 0 min 0 UV-I 0 W/m 0,0 km/h (0 Bft)
20.09.2010 04:30 12,4 C 82 % 1014,2 hPa 0,0 mm 0,0 km/h (0 Bft) SW 225 0 min 0 UV-I 0 W/m 0,0 km/h (0 Bft)
20.09.2010 04:40 12,3 C 83 % 1014,3 hPa 0,0 mm 0,0 km/h (0 Bft) SW 225 0 min 0 UV-I 0 W/m 0,0 km/h (0 Bft)
20.09.2010 04:50 12,2 C 84 % 1014,2 hPa 0,0 mm 0,0 km/h (0 Bft) SW 225 0 min 0 UV-I 0 W/m 0,0 km/h (0 Bft)
20.09.2010 05:00 12,1 C 85 % 1014,3 hPa 0,0 mm 0,0 km/h (0 Bft) SW 225 0 min 0 UV-I 0 W/m 0,0 km/h (0 Bft)
20.09.2010 05:10 12,0 C 85 % 1014,2 hPa 0,0 mm 0,0 km/h (0 Bft) SW 225 0 min 0 UV-I 0 W/m 0,0 km/h (0 Bft)
20.09.2010 05:20 11,8 C 86 % 1014,2 hPa 0,0 mm 0,0 km/h (0 Bft) SW 225 0 min 0 UV-I 0 W/m 0,0 km/h (0 Bft)
20.09.2010 05:30 11,7 C 86 % 1014,3 hPa 0,0 mm 0,0 km/h (0 Bft) SW 225 0 min 0 UV-I 0 W/m 0,0 km/h (0 Bft)
20.09.2010 05:40 11,4 C 87 % 1014,3 hPa 0,0 mm 0,0 km/h (0 Bft) SW 225 0 min 0 UV-I 0 W/m 0,0 km/h (0 Bft)
20.09.2010 05:50 11,3 C 88 % 1014,3 hPa 0,0 mm 1,6 km/h (1 Bft) SW 225 0 min 0 UV-I 0 W/m 1,6 km/h (1 Bft)
20.09.2010 06:00 11,1 C 89 % 1014,2 hPa 0,0 mm 0,0 km/h (0 Bft) SW 225 0 min 0 UV-I 0 W/m 0,0 km/h (0 Bft)
20.09.2010 06:10 11,0 C 89 % 1014,2 hPa 0,0 mm 0,0 km/h (0 Bft) SW 225 0 min 0 UV-I 0 W/m 0,0 km/h (0 Bft)
20.09.2010 06:20 10,7 C 90 % 1014,2 hPa 0,0 mm 0,0 km/h (0 Bft) S-SW 202 0 min 0 UV-I 0 W/m 0,0 km/h (0 Bft)
20.09.2010 06:30 10,7 C 88 % 1014,2 hPa 0,0 mm 0,0 km/h (0 Bft) S-SW 202 0 min 0 UV-I 0 W/m 0,0 km/h (0 Bft)
20.09.2010 06:40 10,5 C 86 % 1014,2 hPa 0,0 mm 0,0 km/h (0 Bft) S-SW 202 0 min 0 UV-I 0 W/m 0,0 km/h (0 Bft)
20.09.2010 06:50 10,2 C 84 % 1014,2 hPa 0,0 mm 1,6 km/h (1 Bft) S-SW 202 0 min 0 UV-I 0 W/m 1,6 km/h (1 Bft)
20.09.2010 07:00 10,2 C 83 % 1014,2 hPa 0,0 mm 0,0 km/h (0 Bft) S-SW 202 0 min 0 UV-I 0 W/m 0,0 km/h (0 Bft)
20.09.2010 07:10 10,2 C 81 % 1014,3 hPa 0,0 mm 0,0 km/h (0 Bft) S-SW 202 0 min 0 UV-I 0 W/m 0,0 km/h (0 Bft)
20.09.2010 07:20 10,2 C 80 % 1014,3 hPa 0,0 mm 0,0 km/h (0 Bft) S-SW 202 0 min 0 UV-I 0 W/m 0,0 km/h (0 Bft)
20.09.2010 07:30 10,2 C 79 % 1014,4 hPa 0,0 mm 0,0 km/h (0 Bft) SW 225 0 min 0 UV-I 0 W/m 0,0 km/h (0 Bft)
20.09.2010 07:40 10,5 C 79 % 1014,4 hPa 0,0 mm 0,0 km/h (0 Bft) SW 225 0 min 0 UV-I 0 W/m 0,0 km/h (0 Bft)
20.09.2010 07:50 10,7 C 78 % 1014,5 hPa 0,0 mm 0,0 km/h (0 Bft) SW 225 0 min 0 UV-I 0 W/m 0,0 km/h (0 Bft)
20.09.2010 08:00 10,8 C 78 % 1014,4 hPa 0,0 mm 0,0 km/h (0 Bft) SW 225 0 min 0 UV-I 0 W/m 0,0 km/h (0 Bft)
20.09.2010 08:10 11,0 C 78 % 1014,4 hPa 0,0 mm 0,0 km/h (0 Bft) SW 225 0 min 0 UV-I 0 W/m 0,0 km/h (0 Bft)
20.09.2010 08:20 11,3 C 78 % 1014,5 hPa 0,0 mm 0,0 km/h (0 Bft) SW 225 0 min 0 UV-I 0 W/m 0,0 km/h (0 Bft)
20.09.2010 08:30 11,5 C 78 % 1014,5 hPa 0,0 mm 0,0 km/h (0 Bft) SW 225 0 min 0 UV-I 0 W/m 0,0 km/h (0 Bft)
20.09.2010 08:40 11,8 C 78 % 1014,7 hPa 0,0 mm 0,0 km/h (0 Bft) SW 225 0 min 0 UV-I 0 W/m 0,0 km/h (0 Bft)
20.09.2010 08:50 12,3 C 78 % 1014,6 hPa 0,0 mm 0,0 km/h (0 Bft) SW 225 0 min 0 UV-I 16 W/m 0,0 km/h (0 Bft)
20.09.2010 09:00 12,5 C 78 % 1014,6 hPa 0,0 mm 0,0 km/h (0 Bft) SW 225 0 min 0 UV-I 19 W/m 0,0 km/h (0 Bft)
20.09.2010 09:10 12,7 C 77 % 1014,6 hPa 0,0 mm 0,0 km/h (0 Bft) SW 225 0 min 0 UV-I 30 W/m 9,7 km/h (2 Bft)
20.09.2010 09:20 12,8 C 77 % 1014,6 hPa 0,0 mm 0,0 km/h (0 Bft) SW 225 0 min 0 UV-I 33 W/m 6,4 km/h (2 Bft)
20.09.2010 09:30 13,1 C 76 % 1014,5 hPa 0,0 mm 0,0 km/h (0 Bft) S-SW 202 0 min 0 UV-I 42 W/m 9,7 km/h (2 Bft)
20.09.2010 09:40 13,4 C 76 % 1014,6 hPa 0,0 mm 0,0 km/h (0 Bft) S-SW 202 0 min 0 UV-I 54 W/m 8,0 km/h (2 Bft)
20.09.2010 09:50 13,5 C 76 % 1014,6 hPa 0,0 mm 0,0 km/h (0 Bft) S-SW 202 0 min 0 UV-I 123 W/m 9,7 km/h (2 Bft)
20.09.2010 10:00 13,8 C 75 % 1014,6 hPa 0,0 mm 0,0 km/h (0 Bft) S-SW 202 0 min 1 UV-I 118 W/m 6,4 km/h (2 Bft)
20.09.2010 10:10 13,9 C 74 % 1014,6 hPa 0,0 mm 1,6 km/h (1 Bft) S-SW 202 0 min 1 UV-I 169 W/m 6,4 km/h (2 Bft)
20.09.2010 10:20 14,2 C 73 % 1014,6 hPa 0,0 mm 0,0 km/h (0 Bft) SW 225 0 min 1 UV-I 188 W/m 4,8 km/h (1 Bft)
20.09.2010 10:30 14,4 C 72 % 1014,7 hPa 0,0 mm 1,6 km/h (1 Bft) SW 225 0 min 1 UV-I 179 W/m 8,0 km/h (2 Bft)
20.09.2010 10:40 14,6 C 71 % 1014,6 hPa 0,0 mm 1,6 km/h (1 Bft) W-SW 247 0 min 1 UV-I 188 W/m 8,0 km/h (2 Bft)
20.09.2010 10:50 14,8 C 70 % 1014,7 hPa 0,0 mm 1,6 km/h (1 Bft) W 270 0 min 1 UV-I 195 W/m 11,3 km/h (2 Bft)
20.09.2010 11:00 15,0 C 70 % 1014,6 hPa 0,0 mm 1,6 km/h (1 Bft) W-SW 247 0 min 1 UV-I 185 W/m 9,7 km/h (2 Bft)
20.09.2010 11:10 15,1 C 70 % 1014,7 hPa 0,0 mm 1,6 km/h (1 Bft) W-SW 247 0 min 2 UV-I 213 W/m 6,4 km/h (2 Bft)
20.09.2010 11:20 15,1 C 69 % 1014,5 hPa 0,0 mm 1,6 km/h (1 Bft) W-SW 247 0 min 2 UV-I 195 W/m 8,0 km/h (2 Bft)
20.09.2010 11:30 15,2 C 70 % 1014,6 hPa 0,0 mm 1,6 km/h (1 Bft) SW 225 0 min 1 UV-I 195 W/m 6,4 km/h (2 Bft)
20.09.2010 11:40 15,3 C 69 % 1014,6 hPa 0,0 mm 1,6 km/h (1 Bft) S-SW 202 0 min 2 UV-I 209 W/m 6,4 km/h (2 Bft)
20.09.2010 11:50 15,7 C 65 % 1014,5 hPa 0,0 mm 3,2 km/h (1 Bft) W-SW 247 10 min 4 UV-I 875 W/m 17,7 km/h (3 Bft)
20.09.2010 12:00 16,8 C 61 % 1014,5 hPa 0,0 mm 6,4 km/h (2 Bft) W-SW 247 10 min 4 UV-I 756 W/m 19,3 km/h (3 Bft)
20.09.2010 12:10 17,1 C 59 % 1014,5 hPa 0,0 mm 4,8 km/h (1 Bft) S-SW 202 10 min 4 UV-I 751 W/m 19,3 km/h (3 Bft)
20.09.2010 12:20 17,1 C 58 % 1014,5 hPa 0,0 mm 8,0 km/h (2 Bft) S-SW 202 10 min 4 UV-I 789 W/m 20,9 km/h (4 Bft)
20.09.2010 12:30 17,1 C 58 % 1014,5 hPa 0,0 mm 6,4 km/h (2 Bft) W 270 10 min 4 UV-I 550 W/m 24,1 km/h (4 Bft)
20.09.2010 12:40 17,0 C 56 % 1014,4 hPa 0,0 mm 8,0 km/h (2 Bft) S-SW 202 10 min 4 UV-I 779 W/m 22,5 km/h (4 Bft)
20.09.2010 12:50 17,1 C 56 % 1014,4 hPa 0,0 mm 8,0 km/h (2 Bft) SW 225 10 min 4 UV-I 710 W/m 22,5 km/h (4 Bft)
20.09.2010 13:00 17,4 C 55 % 1014,5 hPa 0,0 mm 9,7 km/h (2 Bft) W 270 10 min 4 UV-I 717 W/m 20,9 km/h (4 Bft)
20.09.2010 13:10 17,8 C 56 % 1014,3 hPa 0,0 mm 4,8 km/h (1 Bft) W-SW 247 10 min 4 UV-I 729 W/m 17,7 km/h (3 Bft)
20.09.2010 13:20 18,2 C 55 % 1014,4 hPa 0,0 mm 8,0 km/h (2 Bft) W-SW 247 10 min 4 UV-I 745 W/m 17,7 km/h (3 Bft)
20.09.2010 13:30 18,5 C 56 % 1014,3 hPa 0,0 mm 8,0 km/h (2 Bft) W-SW 247 10 min 4 UV-I 745 W/m 22,5 km/h (4 Bft)
20.09.2010 13:40 18,8 C 56 % 1014,1 hPa 0,0 mm 4,8 km/h (1 Bft) SW 225 10 min 4 UV-I 735 W/m 16,1 km/h (3 Bft)
20.09.2010 13:50 19,2 C 54 % 1014,0 hPa 0,0 mm 8,0 km/h (2 Bft) S-SW 202 10 min 5 UV-I 888 W/m 25,7 km/h (4 Bft)
20.09.2010 14:00 19,2 C 55 % 1014,0 hPa 0,0 mm 9,7 km/h (2 Bft) W-SW 247 10 min 4 UV-I 387 W/m 25,7 km/h (4 Bft)
20.09.2010 14:10 18,6 C 58 % 1013,9 hPa 0,0 mm 6,4 km/h (2 Bft) W-SW 247 10 min 3 UV-I 415 W/m 22,5 km/h (4 Bft)
20.09.2010 14:20 18,7 C 57 % 1013,9 hPa 0,0 mm 6,4 km/h (2 Bft) W 270 10 min 5 UV-I 462 W/m 20,9 km/h (4 Bft)
20.09.2010 14:30 19,2 C 55 % 1013,9 hPa 0,0 mm 6,4 km/h (2 Bft) W 270 10 min 4 UV-I 874 W/m 19,3 km/h (3 Bft)
20.09.2010 14:40 19,6 C 53 % 1013,8 hPa 0,0 mm 9,7 km/h (2 Bft) W 270 10 min 4 UV-I 619 W/m 24,1 km/h (4 Bft)
20.09.2010 14:50 19,4 C 54 % 1013,7 hPa 0,0 mm 9,7 km/h (2 Bft) W 270 10 min 4 UV-I 812 W/m 27,4 km/h (4 Bft)
20.09.2010 15:00 19,8 C 52 % 1013,7 hPa 0,0 mm 9,7 km/h (2 Bft) W-SW 247 10 min 4 UV-I 780 W/m 22,5 km/h (4 Bft)
20.09.2010 15:10 19,4 C 54 % 1013,5 hPa 0,0 mm 9,7 km/h (2 Bft) W-SW 247 10 min 3 UV-I 415 W/m 25,7 km/h (4 Bft)
20.09.2010 15:20 19,3 C 55 % 1013,5 hPa 0,0 mm 8,0 km/h (2 Bft) W-SW 247 0 min 2 UV-I 279 W/m 27,4 km/h (4 Bft)
20.09.2010 15:30 19,2 C 55 % 1013,6 hPa 0,0 mm 8,0 km/h (2 Bft) SW 225 10 min 3 UV-I 448 W/m 24,1 km/h (4 Bft)
20.09.2010 15:40 19,7 C 55 % 1013,5 hPa 0,0 mm 8,0 km/h (2 Bft) W-SW 247 10 min 3 UV-I 715 W/m 22,5 km/h (4 Bft)
20.09.2010 15:50 19,9 C 55 % 1013,5 hPa 0,0 mm 6,4 km/h (2 Bft) SW 225 10 min 2 UV-I 424 W/m 19,3 km/h (3 Bft)
20.09.2010 16:00 19,6 C 55 % 1013,5 hPa 0,0 mm 7,8 km/h (2 Bft) W-SW 240 10 min 2 UV-I 302 W/m 17,7 km/h (3 Bft)
20.09.2010 16:10 19,4 C 55 % 1013,5 hPa 0,0 mm 8,0 km/h (2 Bft) W-SW 247 10 min 2 UV-I 281 W/m 25,7 km/h (4 Bft)
20.09.2010 16:20 19,3 C 55 % 1013,5 hPa 0,0 mm 6,4 km/h (2 Bft) W-SW 247 10 min 2 UV-I 276 W/m 20,9 km/h (4 Bft)
20.09.2010 16:30 19,3 C 56 % 1013,5 hPa 0,0 mm 4,8 km/h (1 Bft) W-SW 247 0 min 1 UV-I 220 W/m 17,7 km/h (3 Bft)
20.09.2010 16:40 19,0 C 57 % 1013,5 hPa 0,0 mm 7,7 km/h (2 Bft) W-SW 250 0 min 1 UV-I 136 W/m 17,7 km/h (3 Bft)
20.09.2010 16:50 18,8 C 58 % 1013,4 hPa 0,0 mm 4,5 km/h (1 Bft) W 261 0 min 1 UV-I 143 W/m 11,3 km/h (2 Bft)
20.09.2010 17:00 18,7 C 58 % 1013,4 hPa 0,0 mm 4,5 km/h (1 Bft) SW 223 0 min 1 UV-I 124 W/m 16,1 km/h (3 Bft)
20.09.2010 17:10 18,6 C 59 % 1013,5 hPa 0,0 mm 4,6 km/h (1 Bft) SW 232 0 min 1 UV-I 96 W/m 14,5 km/h (3 Bft)
20.09.2010 17:20 18,6 C 59 % 1013,6 hPa 0,0 mm 5,0 km/h (1 Bft) W 271 0 min 1 UV-I 106 W/m 16,1 km/h (3 Bft)
20.09.2010 17:30 18,4 C 59 % 1013,6 hPa 0,0 mm 2,5 km/h (1 Bft) W-SW 248 0 min 1 UV-I 88 W/m 8,0 km/h (2 Bft)
20.09.2010 17:40 18,3 C 61 % 1013,4 hPa 0,0 mm 2,7 km/h (1 Bft) W-SW 252 0 min 0 UV-I 71 W/m 8,0 km/h (2 Bft)
20.09.2010 17:50 18,3 C 60 % 1013,5 hPa 0,0 mm 2,9 km/h (1 Bft) W-SW 239 0 min 0 UV-I 78 W/m 9,7 km/h (2 Bft)
20.09.2010 18:00 18,3 C 61 % 1013,5 hPa 0,0 mm 1,3 km/h (1 Bft) W-SW 241 0 min 0 UV-I 76 W/m 9,7 km/h (2 Bft)
20.09.2010 18:10 18,2 C 61 % 1013,4 hPa 0,0 mm 1,5 km/h (1 Bft) SW 220 0 min 0 UV-I 46 W/m 8,0 km/h (2 Bft)
20.09.2010 18:20 18,1 C 63 % 1013,4 hPa 0,0 mm 0,4 km/h (0 Bft) W 259 0 min 0 UV-I 47 W/m 4,8 km/h (1 Bft)
20.09.2010 18:30 18,0 C 63 % 1013,4 hPa 0,0 mm 1,0 km/h (0 Bft) W 270 0 min 0 UV-I 53 W/m 8,0 km/h (2 Bft)
20.09.2010 18:40 17,9 C 64 % 1013,5 hPa 0,0 mm 1,3 km/h (1 Bft) SW 217 0 min 0 UV-I 34 W/m 6,4 km/h (2 Bft)
20.09.2010 18:50 17,8 C 64 % 1013,6 hPa 0,0 mm 0,9 km/h (0 Bft) W-SW 253 0 min 0 UV-I 23 W/m 6,4 km/h (2 Bft)
20.09.2010 19:00 17,7 C 65 % 1013,7 hPa 0,0 mm 0,5 km/h (0 Bft) W-SW 251 0 min 0 UV-I 23 W/m 6,4 km/h (2 Bft)
20.09.2010 19:10 17,5 C 66 % 1013,6 hPa 0,0 mm 0,2 km/h (0 Bft) W-SW 250 0 min 0 UV-I 17 W/m 3,2 km/h (1 Bft)
20.09.2010 19:20 17,3 C 68 % 1013,7 hPa 0,0 mm 0,1 km/h (0 Bft) W-SW 251 0 min 0 UV-I 19 W/m 3,2 km/h (1 Bft)
20.09.2010 19:30 17,1 C 69 % 1013,7 hPa 0,0 mm 0,0 km/h (0 Bft) W-SW 251 0 min 0 UV-I 2 W/m 0,0 km/h (0 Bft)
20.09.2010 19:40 16,9 C 70 % 1013,9 hPa 0,0 mm 0,1 km/h (0 Bft) W-SW 251 0 min 0 UV-I 0 W/m 1,6 km/h (1 Bft)
20.09.2010 19:50 16,9 C 70 % 1014,0 hPa 0,0 mm 0,2 km/h (0 Bft) W-SW 250 0 min 0 UV-I 0 W/m 3,2 km/h (1 Bft)
20.09.2010 20:00 16,8 C 70 % 1014,1 hPa 0,0 mm 0,2 km/h (0 Bft) W-SW 248 0 min 0 UV-I 0 W/m 4,8 km/h (1 Bft)
20.09.2010 20:10 16,7 C 71 % 1014,3 hPa 0,0 mm 0,1 km/h (0 Bft) W-SW 248 0 min 0 UV-I 0 W/m 1,6 km/h (1 Bft)
20.09.2010 20:20 16,5 C 71 % 1014,3 hPa 0,0 mm 0,0 km/h (0 Bft) W-SW 248 0 min 0 UV-I 0 W/m 1,6 km/h (1 Bft)
20.09.2010 20:30 16,3 C 72 % 1014,4 hPa 0,0 mm 0,0 km/h (0 Bft) W-SW 248 0 min 0 UV-I 0 W/m 0,0 km/h (0 Bft)
20.09.2010 20:40 16,3 C 72 % 1014,5 hPa 0,0 mm 0,1 km/h (0 Bft) W-SW 247 0 min 0 UV-I 0 W/m 1,6 km/h (1 Bft)
20.09.2010 20:50 16,1 C 73 % 1014,5 hPa 0,0 mm 0,0 km/h (0 Bft) W-SW 246 0 min 0 UV-I 0 W/m 1,6 km/h (1 Bft)
20.09.2010 21:00 16,1 C 73 % 1014,5 hPa 0,0 mm 0,1 km/h (0 Bft) SW 219 0 min 0 UV-I 0 W/m 1,6 km/h (1 Bft)
20.09.2010 21:10 16,0 C 73 % 1014,6 hPa 0,0 mm 0,1 km/h (0 Bft) SW 218 0 min 0 UV-I 0 W/m 1,6 km/h (1 Bft)
20.09.2010 21:20 15,9 C 72 % 1014,6 hPa 0,0 mm 0,3 km/h (0 Bft) S 188 0 min 0 UV-I 0 W/m 6,4 km/h (2 Bft)
20.09.2010 21:30 15,9 C 71 % 1014,7 hPa 0,0 mm 0,4 km/h (0 Bft) S-SW 205 0 min 0 UV-I 0 W/m 3,2 km/h (1 Bft)
20.09.2010 21:40 15,9 C 71 % 1014,8 hPa 0,0 mm 0,6 km/h (0 Bft) W-SW 250 0 min 0 UV-I 0 W/m 6,4 km/h (2 Bft)
20.09.2010 21:50 15,9 C 70 % 1014,8 hPa 0,0 mm 0,6 km/h (0 Bft) SW 236 0 min 0 UV-I 0 W/m 6,4 km/h (2 Bft)
20.09.2010 22:00 15,9 C 70 % 1014,8 hPa 0,0 mm 0,8 km/h (0 Bft) S 183 0 min 0 UV-I 0 W/m 6,4 km/h (2 Bft)
20.09.2010 22:10 15,9 C 69 % 1015,0 hPa 0,0 mm 1,2 km/h (1 Bft) W-SW 240 0 min 0 UV-I 0 W/m 6,4 km/h (2 Bft)
20.09.2010 22:20 15,9 C 69 % 1015,4 hPa 0,0 mm 1,5 km/h (1 Bft) W 268 0 min 0 UV-I 0 W/m 8,0 km/h (2 Bft)
20.09.2010 22:30 16,0 C 69 % 1015,4 hPa 0,0 mm 2,2 km/h (1 Bft) W-SW 244 0 min 0 UV-I 0 W/m 11,3 km/h (2 Bft)
20.09.2010 22:40 15,9 C 69 % 1015,6 hPa 0,0 mm 0,6 km/h (0 Bft) SW 229 0 min 0 UV-I 0 W/m 4,8 km/h (1 Bft)
20.09.2010 22:50 15,8 C 69 % 1015,7 hPa 0,0 mm 0,4 km/h (0 Bft) W-SW 256 0 min 0 UV-I 0 W/m 4,8 km/h (1 Bft)
20.09.2010 23:00 15,8 C 69 % 1015,8 hPa 0,0 mm 0,8 km/h (0 Bft) W-SW 246 0 min 0 UV-I 0 W/m 8,0 km/h (2 Bft)
20.09.2010 23:10 15,7 C 70 % 1015,8 hPa 0,0 mm 0,8 km/h (0 Bft) SW 235 0 min 0 UV-I 0 W/m 4,8 km/h (1 Bft)
20.09.2010 23:20 15,7 C 70 % 1015,9 hPa 0,0 mm 0,1 km/h (0 Bft) SW 234 0 min 0 UV-I 0 W/m 1,6 km/h (1 Bft)
20.09.2010 23:30 15,6 C 70 % 1015,9 hPa 0,0 mm 0,4 km/h (0 Bft) W-SW 248 0 min 0 UV-I 0 W/m 4,8 km/h (1 Bft)
20.09.2010 23:40 15,6 C 70 % 1015,9 hPa 0,0 mm 0,9 km/h (0 Bft) SW 227 0 min 0 UV-I 0 W/m 6,4 km/h (2 Bft)
20.09.2010 23:50 15,5 C 71 % 1015,9 hPa 0,0 mm 0,2 km/h (0 Bft) SW 218 0 min 0 UV-I 0 W/m 3,2 km/h (1 Bft)
_ Min-Zeit 06:50 15:00 16:50 - 01:00 - - - - - 01:50
Minimum _ 10,2 C 52 % 1013,4 hPa - 0,0 km/h (0 Bft) - - - - - 0,0 km/h (0 Bft)
_ Max-Zeit 15:50 06:20 23:20 00:00 13:00 - - 11:50 13:50 13:50 14:50
Maximum _ 20,1 C 90 % 1015,9 hPa 0,0 mm 9,7 km/h
W (2 Bft)
- - 10 min 5 UV-I 888 W/m 27,4 km/h
W (4 Bft)
Durchschnitt _ 15,1 C 71 % 1014,4 hPa #0,0 mm 2,1 km/h (1 Bft) W-SW - #4:30 h 2 UV-I 323 W/m 7,7 km/h (2 Bft)